createdAt,value
2019-04-16T00:00:59.101Z,89.96
2019-04-16T00:01:59.117Z,90.24
2019-04-16T00:02:59.130Z,90.15
2019-04-16T00:03:59.148Z,89.86
2019-04-16T00:05:00.204Z,89.86
2019-04-16T00:06:02.045Z,90.05
2019-04-16T00:07:59.208Z,89.86
2019-04-16T00:09:00.626Z,89.96
2019-04-16T00:10:13.903Z,90.34
2019-04-16T00:10:59.006Z,90.34
2019-04-16T00:11:59.272Z,90.91
2019-04-16T00:12:59.290Z,90.62
2019-04-16T00:14:02.944Z,90.72
2019-04-16T00:14:59.321Z,90.72
2019-04-16T00:15:59.089Z,91.28
2019-04-16T00:16:59.348Z,91.19
2019-04-16T00:17:59.366Z,91.19
2019-04-16T00:19:05.536Z,91.47
2019-04-16T00:19:59.395Z,91.38
2019-04-16T00:20:59.409Z,91.38
2019-04-16T00:21:59.625Z,91.76
2019-04-16T00:22:59.469Z,91.76
2019-04-16T00:23:59.464Z,91.47
2019-04-16T00:24:59.471Z,91.66
2019-04-16T00:26:14.150Z,91.47
2019-04-16T00:27:02.066Z,91.57
2019-04-16T00:28:02.784Z,91.76
2019-04-16T00:29:04.133Z,91.57
2019-04-16T00:30:03.824Z,91.95
2019-04-16T00:30:59.581Z,91.47
2019-04-16T00:31:59.584Z,91.85
2019-04-16T00:32:59.736Z,91.95
2019-04-16T00:33:59.770Z,91.47
2019-04-16T00:34:59.630Z,91.57
2019-04-16T00:35:59.639Z,91.66
2019-04-16T00:37:59.670Z,91.52
2019-04-16T00:38:59.688Z,91.47
2019-04-16T00:39:59.744Z,91.66
2019-04-16T00:41:14.380Z,92.09
2019-04-16T00:41:59.817Z,92.23
2019-04-16T00:42:59.820Z,92.14
2019-04-16T00:43:59.899Z,92.19
2019-04-16T00:44:59.925Z,92.28
2019-04-16T00:45:59.951Z,91.9
2019-04-16T00:46:59.811Z,92.66
2019-04-16T00:48:00.023Z,92.28
2019-04-16T00:49:00.097Z,92.28
2019-04-16T00:50:01.862Z,92.28
2019-04-16T00:53:59.913Z,92.38
2019-04-16T00:54:59.933Z,92.47
2019-04-16T00:55:59.944Z,92.09
2019-04-16T00:56:59.960Z,92.57
2019-04-16T00:58:00.080Z,92.66
2019-04-16T00:59:00.072Z,92.76
2019-04-16T01:00:00.080Z,92.76
2019-04-16T01:02:00.039Z,92.66
2019-04-16T01:03:00.053Z,92.47
2019-04-16T01:04:00.065Z,92.09
2019-04-16T01:05:00.083Z,92
2019-04-16T01:06:00.096Z,92.85
2019-04-16T01:07:00.111Z,92.66
2019-04-16T01:08:00.126Z,92.47
2019-04-16T01:09:00.142Z,92.94
2019-04-16T01:10:00.159Z,92.85
2019-04-16T01:10:59.922Z,92.94
2019-04-16T01:12:00.188Z,92.38
2019-04-16T01:13:14.868Z,92.57
2019-04-16T01:14:00.216Z,93.04
2019-04-16T01:15:03.251Z,93.04
2019-04-16T01:16:05.164Z,93.51
2019-04-16T01:17:03.804Z,93.13
2019-04-16T01:18:00.275Z,93.23
2019-04-16T01:19:00.291Z,93.89
2019-04-16T01:20:00.651Z,93.7
2019-04-16T01:21:00.684Z,93.99
2019-04-16T01:22:00.624Z,93.99
2019-04-16T01:23:00.350Z,93.61
2019-04-16T01:24:00.367Z,93.99
2019-04-16T01:25:00.386Z,93.7
2019-04-16T01:26:00.394Z,93.89
2019-04-16T01:27:01.576Z,93.61
2019-04-16T01:28:03.599Z,93.51
2019-04-16T01:29:15.103Z,93.99
2019-04-16T01:30:04.842Z,93.7
2019-04-16T01:31:00.473Z,93.7
2019-04-16T01:32:00.485Z,93.7
2019-04-16T01:33:00.504Z,93.99
2019-04-16T01:34:00.758Z,93.7
2019-04-16T01:35:00.537Z,93.89
2019-04-16T01:36:00.546Z,93.89
2019-04-16T01:37:00.560Z,93.99
2019-04-16T01:38:00.673Z,93.61
2019-04-16T01:39:18.310Z,94.37
2019-04-16T01:40:00.835Z,94.08
2019-04-16T01:41:00.622Z,94.08
2019-04-16T01:42:00.647Z,94.08
2019-04-16T01:44:00.846Z,93.61
2019-04-16T01:45:15.341Z,93.99
2019-04-16T01:46:04.505Z,93.7
2019-04-16T01:47:03.280Z,93.7
2019-04-16T01:48:00.723Z,93.61
2019-04-16T01:49:00.737Z,93.89
2019-04-16T01:50:00.756Z,93.61
2019-04-16T01:51:00.765Z,93.42
2019-04-16T01:52:00.783Z,94.18
2019-04-16T01:53:00.795Z,94.18
2019-04-16T01:54:00.901Z,94.27
2019-04-16T01:55:00.986Z,94.37
2019-04-16T01:56:01.007Z,94.18
2019-04-16T01:57:02.888Z,94.27
2019-04-16T01:58:04.411Z,94.32
2019-04-16T01:59:04.497Z,93.84
2019-04-16T02:00:01.128Z,93.42
2019-04-16T02:01:15.577Z,93.75
2019-04-16T02:02:00.928Z,94.04
2019-04-16T02:03:00.946Z,93.84
2019-04-16T02:04:01.389Z,93.37
2019-04-16T02:05:01.104Z,94.42
2019-04-16T02:06:01.219Z,93.61
2019-04-16T02:07:01.220Z,93.84
2019-04-16T02:08:01.701Z,93.27
2019-04-16T02:09:04.326Z,93.51
2019-04-16T02:10:05.889Z,93.37
2019-04-16T02:11:01.073Z,93.27
2019-04-16T02:12:01.076Z,93.61
2019-04-16T02:13:01.093Z,92.8
2019-04-16T02:15:01.126Z,92.9
2019-04-16T02:16:15.799Z,92.43
2019-04-16T02:17:01.154Z,92.66
2019-04-16T02:18:02.389Z,92.8
2019-04-16T02:19:04.416Z,92.8
2019-04-16T02:21:01.215Z,92.71
2019-04-16T02:22:01.228Z,92.61
2019-04-16T02:23:01.241Z,92.24
2019-04-16T02:24:01.257Z,92.61
2019-04-16T02:25:01.290Z,92.66
2019-04-16T02:26:01.289Z,92.43
2019-04-16T02:28:01.325Z,92.52
2019-04-16T02:29:02.007Z,92.33
2019-04-16T02:30:06.117Z,92.05
2019-04-16T02:31:01.367Z,92.61
2019-04-16T02:32:01.840Z,92.24
2019-04-16T02:33:01.407Z,92.61
2019-04-16T02:34:01.443Z,92.24
2019-04-16T02:35:01.419Z,91.95
2019-04-16T02:36:01.437Z,92.14
2019-04-16T02:39:01.965Z,92.43
2019-04-16T02:40:01.535Z,92.61
2019-04-16T02:41:01.612Z,92.24
2019-04-16T02:42:01.653Z,92.14
2019-04-16T02:43:07.930Z,92.33
2019-04-16T02:44:01.557Z,92.33
2019-04-16T02:46:01.580Z,92.52
2019-04-16T02:47:08.703Z,91.76
2019-04-16T02:48:17.265Z,92.05
2019-04-16T02:49:01.870Z,92.24
2019-04-16T02:50:01.658Z,92.24
2019-04-16T02:51:08.652Z,92.05
2019-04-16T02:52:01.665Z,92.33
2019-04-16T02:53:01.696Z,92.52
2019-04-16T02:54:02.529Z,92.24
2019-04-16T02:55:06.914Z,92.05
2019-04-16T02:56:01.724Z,92.05
2019-04-16T02:57:01.760Z,92.05
2019-04-16T02:58:03.652Z,91.86
2019-04-16T02:59:09.120Z,92.05
2019-04-16T03:00:01.783Z,92.14
2019-04-16T03:01:01.795Z,92.24
2019-04-16T03:03:01.821Z,91.95
2019-04-16T03:04:16.499Z,92.05
2019-04-16T03:05:01.853Z,92.43
2019-04-16T03:06:03.928Z,92.24
2019-04-16T03:07:05.299Z,92.05
2019-04-16T03:08:06.355Z,91.76
2019-04-16T03:09:01.908Z,92.05
2019-04-16T03:10:04.281Z,92.05
2019-04-16T03:11:02.021Z,92.61
2019-04-16T03:12:01.953Z,92.43
2019-04-16T03:13:01.966Z,92.71
2019-04-16T03:14:02.176Z,92.43
2019-04-16T03:15:04.353Z,92.05
2019-04-16T03:16:07.938Z,92.05
2019-04-16T03:18:02.295Z,92.05
2019-04-16T03:19:02.058Z,91.95
2019-04-16T03:20:16.745Z,92.05
2019-04-16T03:21:02.081Z,91.86
2019-04-16T03:22:05.186Z,92.14
2019-04-16T03:24:02.124Z,91.48
2019-04-16T03:25:02.146Z,91.48
2019-04-16T03:26:02.156Z,91.48
2019-04-16T03:27:04.552Z,91.48
2019-04-16T03:28:02.183Z,91.48
2019-04-16T03:29:02.199Z,91.38
2019-04-16T03:30:07.431Z,91.38
2019-04-16T03:31:07.053Z,91.38
2019-04-16T03:32:02.374Z,91.48
2019-04-16T03:33:09.457Z,91.76
2019-04-16T03:34:02.379Z,91.57
2019-04-16T03:35:02.283Z,91.76
2019-04-16T03:36:16.960Z,91.48
2019-04-16T03:37:04.446Z,92.14
2019-04-16T03:38:06.734Z,92.05
2019-04-16T03:39:02.342Z,91.38
2019-04-16T03:40:14.800Z,91.76
2019-04-16T03:41:02.372Z,91.76
2019-04-16T03:42:02.386Z,91.48
2019-04-16T03:43:06.257Z,92.14
2019-04-16T03:44:06.502Z,92.05
2019-04-16T03:46:02.441Z,92.24
2019-04-16T03:49:02.485Z,92.05
2019-04-16T03:50:02.668Z,92.05
2019-04-16T03:51:17.177Z,92.14
2019-04-16T03:52:04.569Z,91.86
2019-04-16T03:53:02.546Z,92.05
2019-04-16T03:54:04.833Z,92.14
2019-04-16T03:55:02.571Z,91.95
2019-04-16T03:56:02.605Z,91.86
2019-04-16T03:57:05.116Z,91.95
2019-04-16T03:58:07.867Z,92.05
2019-04-16T03:59:02.629Z,91.48
2019-04-16T04:00:03.417Z,92.05
2019-04-16T04:01:02.660Z,92.14
2019-04-16T04:02:02.674Z,92.33
2019-04-16T04:03:02.721Z,91.95
2019-04-16T04:04:02.702Z,91.86
2019-04-16T04:05:06.633Z,92.05
2019-04-16T04:06:03.462Z,92.05
2019-04-16T04:07:02.760Z,92.05
2019-04-16T04:08:02.759Z,92.05
2019-04-16T04:09:02.771Z,92.24
2019-04-16T04:10:02.793Z,92.14
2019-04-16T04:11:02.802Z,92.05
2019-04-16T04:12:02.814Z,92.05
2019-04-16T04:13:04.821Z,92.05
2019-04-16T04:14:02.921Z,91.86
2019-04-16T04:15:02.859Z,91.95
2019-04-16T04:17:07.903Z,91.95
2019-04-16T04:19:02.922Z,91.48
2019-04-16T04:20:02.939Z,91.67
2019-04-16T04:21:02.947Z,91.29
2019-04-16T04:22:02.957Z,91.29
2019-04-16T04:23:17.633Z,91.48
2019-04-16T04:25:07.470Z,91.29
2019-04-16T04:26:05.445Z,91.29
2019-04-16T04:27:03.034Z,91.29
2019-04-16T04:28:03.043Z,91.38
2019-04-16T04:29:06.014Z,90.81
2019-04-16T04:30:03.072Z,91.1
2019-04-16T04:31:04.317Z,91
2019-04-16T04:32:05.989Z,90.91
2019-04-16T04:33:07.352Z,91.19
2019-04-16T04:34:03.129Z,90.91
2019-04-16T04:35:03.165Z,90.91
2019-04-16T04:36:03.159Z,91
2019-04-16T04:37:03.174Z,90.81
2019-04-16T04:38:06.437Z,90.72
2019-04-16T04:39:18.070Z,90.72
2019-04-16T04:40:03.219Z,91.1
2019-04-16T04:41:03.235Z,91.1
2019-04-16T04:42:03.246Z,91.1
2019-04-16T04:43:04.183Z,91
2019-04-16T04:44:07.735Z,90.81
2019-04-16T04:45:08.312Z,90.63
2019-04-16T04:46:03.305Z,90.15
2019-04-16T04:47:03.324Z,90.01
2019-04-16T04:48:03.332Z,89.63
2019-04-16T04:49:03.350Z,88.59
2019-04-16T04:50:06.536Z,86.64
2019-04-16T04:51:09.466Z,85.45
2019-04-16T04:52:03.397Z,83.65
2019-04-16T04:53:03.409Z,82.36
2019-04-16T04:54:03.427Z,80.37
2019-04-16T04:55:18.102Z,78.13
2019-04-16T04:56:03.458Z,77.47
2019-04-16T04:57:03.477Z,75.89
2019-04-16T04:58:05.705Z,74.37
2019-04-16T04:59:07.136Z,73.23
2019-04-16T05:00:05.549Z,73.04
2019-04-16T05:01:03.545Z,72.7
2019-04-16T05:02:03.562Z,71.46
2019-04-16T05:03:03.585Z,70.89
2019-04-16T05:04:04.688Z,69.79
2019-04-16T05:05:03.622Z,69.02
2019-04-16T05:06:03.641Z,68.36
2019-04-16T05:07:07.219Z,67.92
2019-04-16T05:09:03.907Z,66.05
2019-04-16T05:10:04.528Z,64.05
2019-04-16T05:11:18.402Z,64.15
2019-04-16T05:12:03.760Z,63.29
2019-04-16T05:13:03.779Z,63.39
2019-04-16T05:14:03.803Z,62.56
2019-04-16T05:15:06.323Z,61.07
2019-04-16T05:16:06.996Z,59.83
2019-04-16T05:17:08.450Z,59.45
2019-04-16T05:18:05.747Z,58.91
2019-04-16T05:19:03.999Z,58.52
2019-04-16T05:20:03.958Z,58.78
2019-04-16T05:21:03.954Z,58.94
2019-04-16T05:22:03.976Z,59.61
2019-04-16T05:24:04.023Z,60.72
2019-04-16T05:25:04.967Z,60.91
2019-04-16T05:26:18.731Z,61.48
2019-04-16T05:27:05.396Z,61.13
2019-04-16T05:29:04.133Z,59.7
2019-04-16T05:30:04.157Z,59.51
2019-04-16T05:31:04.180Z,60.08
2019-04-16T05:32:04.207Z,59.61
2019-04-16T05:33:07.700Z,59.8
2019-04-16T05:34:05.965Z,59.89
2019-04-16T05:35:08.915Z,59.51
2019-04-16T05:36:04.297Z,59.42
2019-04-16T05:37:04.322Z,59.32
2019-04-16T05:38:04.343Z,58.78
2019-04-16T05:39:06.131Z,57.76
2019-04-16T05:40:04.400Z,56.84
2019-04-16T05:41:20.201Z,55.69
2019-04-16T05:42:04.437Z,54.67
2019-04-16T05:43:04.459Z,54.48
2019-04-16T05:44:04.565Z,53.62
2019-04-16T05:45:05.443Z,54
2019-04-16T05:46:05.422Z,53.81
2019-04-16T05:47:04.568Z,54
2019-04-16T05:48:04.585Z,53.72
2019-04-16T05:49:04.611Z,53.08
2019-04-16T05:50:04.632Z,52.57
2019-04-16T05:51:04.658Z,52.31
2019-04-16T05:52:06.375Z,52.22
2019-04-16T05:53:05.344Z,51.29
2019-04-16T05:54:04.732Z,51
2019-04-16T05:55:04.830Z,50.52
2019-04-16T05:56:04.782Z,50.52
2019-04-16T05:57:04.812Z,50.9
2019-04-16T05:58:19.496Z,50.52
2019-04-16T05:59:05.742Z,50.24
2019-04-16T06:00:10.200Z,50.04
2019-04-16T06:01:04.945Z,50.43
2019-04-16T06:02:04.933Z,50.62
2019-04-16T06:03:04.961Z,49.98
2019-04-16T06:04:04.987Z,49.59
2019-04-16T06:05:05.018Z,49.59
2019-04-16T06:06:05.051Z,48.57
2019-04-16T06:07:09.779Z,48.64
2019-04-16T06:08:06.289Z,48.25
2019-04-16T06:09:05.128Z,49.28
2019-04-16T06:10:06.852Z,49.66
2019-04-16T06:11:05.175Z,50.02
2019-04-16T06:12:05.775Z,49.85
2019-04-16T06:13:05.233Z,49.38
2019-04-16T06:14:19.920Z,48.54
2019-04-16T06:15:05.290Z,49.4
2019-04-16T06:16:05.311Z,49.59
2019-04-16T06:17:05.341Z,48.83
2019-04-16T06:18:07.866Z,48.75
2019-04-16T06:19:05.393Z,47.23
2019-04-16T06:20:05.420Z,47.44
2019-04-16T06:21:05.470Z,47.13
2019-04-16T06:23:05.503Z,48.07
2019-04-16T06:24:06.580Z,48.09
2019-04-16T06:25:11.342Z,47.8
2019-04-16T06:26:05.596Z,47.52
2019-04-16T06:27:05.616Z,47.61
2019-04-16T06:28:05.644Z,47.23
2019-04-16T06:29:05.675Z,47.68
2019-04-16T06:30:20.365Z,47.87
2019-04-16T06:31:10.225Z,47.68
2019-04-16T06:32:08.333Z,47.78
2019-04-16T06:33:05.787Z,48.07
2019-04-16T06:34:05.813Z,47.61
2019-04-16T06:35:05.852Z,47.13
2019-04-16T06:36:05.878Z,46.39
2019-04-16T06:37:05.907Z,46.39
2019-04-16T06:38:05.936Z,46.39
2019-04-16T06:39:05.957Z,45.91
2019-04-16T06:40:05.985Z,45.81
2019-04-16T06:41:06.676Z,46.17
2019-04-16T06:43:06.073Z,46.39
2019-04-16T06:44:06.698Z,46.46
2019-04-16T06:45:07.418Z,46.27
2019-04-16T06:46:20.832Z,45.98
2019-04-16T06:47:10.449Z,45.91
2019-04-16T06:48:06.215Z,45.62
2019-04-16T06:49:06.249Z,45.55
2019-04-16T06:50:06.313Z,44.33
2019-04-16T06:51:06.303Z,43.66
2019-04-16T06:52:06.331Z,43.1
2019-04-16T06:53:06.366Z,43.08
2019-04-16T06:54:06.391Z,43.56
2019-04-16T06:55:06.539Z,43.92
2019-04-16T06:56:10.509Z,44.04
2019-04-16T06:57:06.487Z,44.13
2019-04-16T06:58:06.513Z,44.31
2019-04-16T06:59:06.553Z,43.92
2019-04-16T07:00:09.675Z,44.5
2019-04-16T07:01:22.566Z,43.83
2019-04-16T07:02:07.556Z,43.54
2019-04-16T07:03:06.665Z,43.56
2019-04-16T07:05:06.719Z,42.05
2019-04-16T07:06:07.281Z,41.97
2019-04-16T07:07:10.483Z,42.24
2019-04-16T07:08:06.808Z,41.78
2019-04-16T07:09:06.588Z,41.5
2019-04-16T07:10:06.869Z,41.21
2019-04-16T07:11:06.890Z,41.48
2019-04-16T07:12:06.920Z,42.05
2019-04-16T07:13:12.718Z,42.14
2019-04-16T07:14:07.835Z,42.51
2019-04-16T07:15:07.010Z,43.08
2019-04-16T07:16:07.040Z,42.99
2019-04-16T07:17:07.073Z,43.1
2019-04-16T07:18:08.500Z,42.17
2019-04-16T07:19:12.781Z,40.84
2019-04-16T07:20:07.476Z,41.21
2019-04-16T07:21:07.189Z,40.56
2019-04-16T07:23:07.248Z,40.75
2019-04-16T07:24:07.288Z,40.08
2019-04-16T07:25:08.368Z,40.84
2019-04-16T07:26:07.648Z,40.2
2019-04-16T07:27:07.683Z,40.08
2019-04-16T07:28:07.398Z,40.27
2019-04-16T07:29:07.604Z,40.27
2019-04-16T07:30:10.093Z,40.56
2019-04-16T07:32:08.033Z,40.81
2019-04-16T07:33:22.215Z,40.92
2019-04-16T07:34:07.581Z,41.4
2019-04-16T07:35:07.643Z,41.52
2019-04-16T07:36:07.665Z,40.29
2019-04-16T07:37:07.667Z,39.16
2019-04-16T07:38:11.488Z,39.45
2019-04-16T07:39:08.587Z,39.06
2019-04-16T07:40:11.508Z,38.39
2019-04-16T07:41:10.604Z,38.32
2019-04-16T07:42:20.709Z,38.29
2019-04-16T07:43:58.356Z,38.29
2019-04-16T07:44:58.396Z,38.96
2019-04-16T07:45:58.042Z,38.87
2019-04-16T07:47:12.730Z,39.06
2019-04-16T07:47:58.098Z,38.78
2019-04-16T07:48:58.126Z,38.12
2019-04-16T07:50:03.433Z,36.7
2019-04-16T07:50:58.185Z,37.18
2019-04-16T07:51:58.217Z,37.64
2019-04-16T07:52:58.246Z,37.45
2019-04-16T07:53:58.280Z,37.62
2019-04-16T07:54:58.480Z,38.59
2019-04-16T07:56:58.765Z,38.49
2019-04-16T07:57:58.398Z,38.41
2019-04-16T07:59:02.874Z,38.22
2019-04-16T07:59:58.456Z,38.12
2019-04-16T08:00:58.484Z,37.55
2019-04-16T08:01:58.515Z,37.57
2019-04-16T08:03:13.211Z,37.55
2019-04-16T08:04:03.207Z,37.74
2019-04-16T08:04:58.873Z,37.45
2019-04-16T08:05:58.634Z,36.51
2019-04-16T08:06:58.996Z,36.22
2019-04-16T08:07:58.728Z,36.32
2019-04-16T08:09:00.322Z,36.22
2019-04-16T08:10:04.346Z,36.82
2019-04-16T08:10:58.783Z,36.05
2019-04-16T08:11:58.926Z,36.32
2019-04-16T08:13:02.363Z,36.7
2019-04-16T08:13:58.875Z,35.76
2019-04-16T08:15:12.319Z,36.13
2019-04-16T08:15:59.907Z,36.03
2019-04-16T08:16:59.132Z,36.03
2019-04-16T08:18:13.656Z,36.51
2019-04-16T08:18:59.079Z,35.83
2019-04-16T08:19:59.313Z,36.05
2019-04-16T08:21:09.923Z,34.99
2019-04-16T08:21:59.173Z,35.08
2019-04-16T08:22:59.139Z,35.18
2019-04-16T08:23:59.174Z,35.38
2019-04-16T08:25:04.598Z,35.45
2019-04-16T08:26:11.268Z,35.45
2019-04-16T08:26:59.253Z,36.22
2019-04-16T08:28:59.312Z,35.76
2019-04-16T08:30:05.099Z,35.95
2019-04-16T08:30:59.375Z,34.89
2019-04-16T08:31:59.399Z,35.85
2019-04-16T08:32:59.532Z,35.76
2019-04-16T08:33:59.457Z,35.18
2019-04-16T08:34:59.487Z,35.36
2019-04-16T08:35:59.554Z,35.36
2019-04-16T08:36:59.543Z,35.36
2019-04-16T08:38:01.192Z,35.47
2019-04-16T08:38:59.653Z,35.08
2019-04-16T08:40:59.657Z,34.91
2019-04-16T08:41:59.911Z,34.62
2019-04-16T08:43:01.013Z,34.25
2019-04-16T08:44:59.770Z,34.06
2019-04-16T08:45:59.808Z,34.54
2019-04-16T08:47:01.565Z,34.54
2019-04-16T08:47:59.858Z,34.23
2019-04-16T08:48:59.884Z,34.45
2019-04-16T08:50:14.582Z,34.53
2019-04-16T08:51:04.244Z,34.89
2019-04-16T08:51:59.970Z,34.33
2019-04-16T08:52:59.998Z,35.08
2019-04-16T08:54:00.042Z,33.85
2019-04-16T08:55:00.058Z,34.23
2019-04-16T08:56:00.084Z,33.85
2019-04-16T08:58:00.473Z,33.28
2019-04-16T08:59:06.809Z,33.08
2019-04-16T09:00:00.304Z,33.07
2019-04-16T09:03:01.586Z,33.16
2019-04-16T09:05:00.342Z,32.21
2019-04-16T09:06:15.032Z,32.97
2019-04-16T09:08:15.002Z,33.15
2019-04-16T09:09:18.148Z,32.95
2019-04-16T09:10:01.070Z,32.18
2019-04-16T09:11:05.336Z,33.05
2019-04-16T09:12:00.537Z,33.36
2019-04-16T09:13:06.991Z,33.16
2019-04-16T09:15:00.620Z,32.79
2019-04-16T09:16:00.649Z,32.6
2019-04-16T09:17:00.674Z,31.93
2019-04-16T09:18:00.720Z,31.54
2019-04-16T09:20:05.107Z,31.37
2019-04-16T09:21:00.785Z,31.27
2019-04-16T09:22:17.039Z,30.5
2019-04-16T09:23:01.680Z,30.68
2019-04-16T09:24:10.592Z,30.87
2019-04-16T09:25:00.897Z,30.49
2019-04-16T09:26:22.286Z,31.35
2019-04-16T09:27:00.954Z,31.15
2019-04-16T09:28:07.562Z,31.8
2019-04-16T09:29:09.874Z,31.41
2019-04-16T09:30:01.032Z,31.61
2019-04-16T09:31:01.060Z,31.43
2019-04-16T09:32:01.087Z,32.09
2019-04-16T09:33:04.180Z,31.62
2019-04-16T09:34:05.248Z,31.53
2019-04-16T09:35:18.284Z,31.32
2019-04-16T09:36:01.196Z,31.51
2019-04-16T09:37:01.221Z,31.13
2019-04-16T09:38:15.913Z,32.18
2019-04-16T09:39:01.275Z,32.28
2019-04-16T09:40:01.311Z,32.01
2019-04-16T09:41:01.332Z,31.26
2019-04-16T09:42:01.369Z,31.27
2019-04-16T09:43:01.382Z,29.63
2019-04-16T09:44:01.409Z,29.04
2019-04-16T09:45:04.947Z,28.56
2019-04-16T09:46:20.768Z,29.04
2019-04-16T09:47:12.241Z,29.24
2019-04-16T09:48:12.036Z,28.75
2019-04-16T09:49:12.526Z,28.75
2019-04-16T09:50:14.171Z,28.74
2019-04-16T09:51:12.322Z,28.55
2019-04-16T09:52:27.014Z,28.92
2019-04-16T09:53:12.381Z,29.02
2019-04-16T09:54:16.024Z,29.03
2019-04-16T09:55:15.133Z,29.52
2019-04-16T09:56:12.569Z,28.75
2019-04-16T09:57:12.488Z,28.95
2019-04-16T09:58:12.506Z,28.93
2019-04-16T09:59:15.666Z,28.66
2019-04-16T10:00:12.927Z,28.56
2019-04-16T10:01:12.679Z,28.67
2019-04-16T10:03:12.638Z,28.56
2019-04-16T10:05:12.757Z,29.13
2019-04-16T10:06:12.733Z,29.13
2019-04-16T10:07:12.772Z,29.61
2019-04-16T10:08:15.660Z,29.99
2019-04-16T10:09:12.833Z,29.72
2019-04-16T10:10:12.820Z,29.62
2019-04-16T10:11:12.853Z,29.43
2019-04-16T10:12:12.901Z,29.04
2019-04-16T10:13:12.903Z,29.14
2019-04-16T10:14:13.513Z,29.04
2019-04-16T10:15:12.972Z,29.62
2019-04-16T10:16:16.478Z,29.44
2019-04-16T10:17:13.040Z,29.93
2019-04-16T10:18:13.166Z,29.63
2019-04-16T10:19:13.182Z,29.81
2019-04-16T10:20:13.121Z,30.47
2019-04-16T10:21:18.222Z,30.82
2019-04-16T10:22:13.142Z,31.21
2019-04-16T10:23:13.180Z,31.4
2019-04-16T10:24:27.859Z,31.58
2019-04-16T10:25:13.232Z,32.04
2019-04-16T10:26:13.255Z,32.23
2019-04-16T10:27:13.274Z,32.31
2019-04-16T10:28:13.580Z,32.7
2019-04-16T10:29:13.331Z,32.31
2019-04-16T10:30:13.357Z,32.6
2019-04-16T10:31:13.387Z,32.98
2019-04-16T10:32:13.409Z,32.21
2019-04-16T10:33:13.438Z,32.79
2019-04-16T10:34:13.453Z,33.27
2019-04-16T10:35:13.470Z,33.25
2019-04-16T10:36:13.497Z,32.87
2019-04-16T10:37:13.540Z,32.6
2019-04-16T10:38:16.301Z,32.51
2019-04-16T10:39:13.581Z,32.21
2019-04-16T10:40:28.253Z,32.21
2019-04-16T10:41:13.637Z,33.17
2019-04-16T10:42:13.650Z,33.17
2019-04-16T10:43:13.688Z,33.56
2019-04-16T10:44:13.685Z,32.89
2019-04-16T10:45:13.745Z,32.7
2019-04-16T10:46:13.759Z,33.25
2019-04-16T10:47:16.566Z,33.06
2019-04-16T10:48:13.781Z,33.25
2019-04-16T10:49:13.815Z,32.97
2019-04-16T10:50:13.874Z,33.17
2019-04-16T10:51:17.867Z,33.56
2019-04-16T10:52:13.885Z,33.75
2019-04-16T10:53:13.933Z,33.08
2019-04-16T10:54:13.931Z,32.6
2019-04-16T10:55:18.459Z,32.51
2019-04-16T10:56:28.740Z,32.98
2019-04-16T10:57:14.004Z,32.6
2019-04-16T10:59:14.057Z,32.79
2019-04-16T11:00:14.098Z,33.47
2019-04-16T11:01:14.096Z,33.45
2019-04-16T11:02:14.150Z,33.06
2019-04-16T11:03:14.181Z,33.73
2019-04-16T11:04:14.197Z,34.02
2019-04-16T11:05:15.191Z,33.45
2019-04-16T11:06:14.253Z,33.54
2019-04-16T11:07:14.271Z,33.25
2019-04-16T11:08:14.315Z,32.68
2019-04-16T11:09:14.353Z,33.35
2019-04-16T11:10:14.516Z,32.97
2019-04-16T11:11:14.357Z,33.27
2019-04-16T11:12:29.027Z,32.7
2019-04-16T11:13:14.433Z,32.7
2019-04-16T11:14:14.406Z,32.41
2019-04-16T11:15:14.445Z,31.95
2019-04-16T11:16:14.643Z,31.66
2019-04-16T11:17:14.511Z,31.54
2019-04-16T11:18:14.510Z,32.31
2019-04-16T11:19:14.553Z,31.84
2019-04-16T11:20:14.558Z,32.03
2019-04-16T11:21:14.601Z,31.72
2019-04-16T11:22:14.609Z,31.34
2019-04-16T11:23:14.622Z,32.2
2019-04-16T11:24:15.713Z,31.92
2019-04-16T11:25:14.696Z,32.18
2019-04-16T11:26:14.685Z,32.18
2019-04-16T11:27:29.375Z,32.86
2019-04-16T11:28:16.826Z,32.47
2019-04-16T11:29:14.842Z,32.57
2019-04-16T11:30:14.821Z,32.47
2019-04-16T11:31:15.147Z,32.2
2019-04-16T11:32:14.908Z,32.1
2019-04-16T11:33:14.867Z,32.29
2019-04-16T11:34:15.135Z,32.68
2019-04-16T11:35:19.459Z,32.1
2019-04-16T11:36:22.943Z,33.06
2019-04-16T11:37:15.213Z,32.29
2019-04-16T11:38:17.278Z,32.49
2019-04-16T11:39:15.155Z,32.03
2019-04-16T11:40:15.033Z,31.26
2019-04-16T11:41:15.145Z,31.43
2019-04-16T11:42:14.856Z,30.96
2019-04-16T11:43:15.110Z,30.57
2019-04-16T11:44:19.274Z,30.09
2019-04-16T11:45:15.126Z,30.47
2019-04-16T11:46:15.179Z,29.71
2019-04-16T11:47:15.576Z,30.29
2019-04-16T11:48:15.248Z,30.38
2019-04-16T11:49:15.319Z,30.4
2019-04-16T11:51:15.310Z,30.68
2019-04-16T11:52:15.293Z,30.76
2019-04-16T11:53:15.336Z,31.24
2019-04-16T11:54:15.409Z,31.43
2019-04-16T11:55:15.403Z,31.53
2019-04-16T11:56:15.390Z,31.15
2019-04-16T11:57:16.336Z,31.53
2019-04-16T11:58:15.455Z,32.2
2019-04-16T11:59:30.142Z,31.45
2019-04-16T12:00:15.653Z,31.54
2019-04-16T12:01:15.525Z,31.84
2019-04-16T12:02:15.548Z,31.26
2019-04-16T12:03:15.558Z,31.63
2019-04-16T12:05:15.628Z,31.15
2019-04-16T12:06:30.196Z,31.24
2019-04-16T12:07:15.938Z,31.34
2019-04-16T12:08:15.683Z,31.53
2019-04-16T12:09:15.704Z,31.35
2019-04-16T12:10:15.724Z,31.05
2019-04-16T12:11:15.914Z,31.92
2019-04-16T12:13:15.904Z,31.45
2019-04-16T12:14:34.615Z,31.35
2019-04-16T12:15:30.531Z,31.15
2019-04-16T12:16:15.877Z,31.63
2019-04-16T12:17:15.905Z,30.97
2019-04-16T12:19:15.975Z,30.68
2019-04-16T12:20:16.044Z,30.58
2019-04-16T12:21:16.060Z,30.57
2019-04-16T12:22:15.992Z,30.4
2019-04-16T12:23:16.044Z,30.58
2019-04-16T12:24:18.526Z,30.38
2019-04-16T12:25:16.179Z,31.34
2019-04-16T12:26:16.101Z,31.24
2019-04-16T12:27:16.162Z,30.96
2019-04-16T12:28:16.180Z,31.15
2019-04-16T12:29:16.206Z,31.04
2019-04-16T12:30:16.192Z,31.42
2019-04-16T12:31:30.883Z,31.15
2019-04-16T12:32:16.262Z,31.54
2019-04-16T12:33:17.011Z,31.35
2019-04-16T12:34:16.301Z,31.16
2019-04-16T12:35:16.321Z,30.87
2019-04-16T12:36:17.286Z,31.84
2019-04-16T12:37:16.358Z,31.74
2019-04-16T12:38:20.916Z,31.75
2019-04-16T12:39:21.321Z,31.56
2019-04-16T12:40:21.690Z,31.27
2019-04-16T12:41:16.436Z,31.08
2019-04-16T12:42:16.434Z,30.3
2019-04-16T12:43:18.471Z,31.26
2019-04-16T12:44:16.553Z,30.99
2019-04-16T12:45:16.846Z,31.26
2019-04-16T12:46:16.599Z,31.64
2019-04-16T12:47:31.217Z,31.74
2019-04-16T12:48:16.636Z,31.74
2019-04-16T12:49:16.660Z,31.64
2019-04-16T12:50:19.626Z,31.26
2019-04-16T12:51:16.709Z,32.41
2019-04-16T12:52:22.249Z,31.16
2019-04-16T12:53:16.772Z,31.84
2019-04-16T12:54:16.826Z,31.93
2019-04-16T12:55:16.762Z,31.45
2019-04-16T12:56:16.772Z,32.03
2019-04-16T12:57:19.030Z,32.2
2019-04-16T12:58:21.643Z,32.51
2019-04-16T12:59:21.791Z,32.79
2019-04-16T13:00:16.843Z,33.27
2019-04-16T13:01:19.642Z,32.51
2019-04-16T13:02:31.554Z,33.17
2019-04-16T13:03:20.514Z,32.98
2019-04-16T13:04:16.938Z,32.42
2019-04-16T13:05:20.827Z,32.41
2019-04-16T13:06:16.989Z,31.93
2019-04-16T13:07:17.056Z,31.93
2019-04-16T13:08:17.026Z,32.41
2019-04-16T13:09:17.053Z,32.98
2019-04-16T13:10:17.073Z,32.89
2019-04-16T13:11:17.103Z,32.89
2019-04-16T13:12:18.031Z,32.6
2019-04-16T13:13:17.150Z,32.31
2019-04-16T13:15:17.191Z,32.6
2019-04-16T13:16:17.213Z,32.78
2019-04-16T13:17:21.142Z,32.59
2019-04-16T13:18:17.255Z,32.78
2019-04-16T13:19:17.276Z,33.06
2019-04-16T13:20:17.330Z,32.97
2019-04-16T13:21:17.325Z,32.51
2019-04-16T13:22:17.346Z,32.21
2019-04-16T13:23:17.367Z,31.64
2019-04-16T13:24:17.390Z,31.16
2019-04-16T13:25:17.428Z,31.45
2019-04-16T13:26:17.434Z,31.35
2019-04-16T13:27:17.459Z,31.35
2019-04-16T13:28:17.482Z,31.16
2019-04-16T13:30:17.525Z,31.84
2019-04-16T13:31:17.552Z,31.54
2019-04-16T13:32:17.572Z,31.74
2019-04-16T13:33:17.595Z,31.74
2019-04-16T13:34:32.281Z,31.35
2019-04-16T13:35:17.640Z,32.12
2019-04-16T13:36:17.665Z,32.03
2019-04-16T13:37:17.685Z,31.35
2019-04-16T13:38:17.744Z,32.12
2019-04-16T13:39:17.731Z,31.26
2019-04-16T13:40:17.760Z,31.54
2019-04-16T13:41:17.777Z,31.07
2019-04-16T13:42:17.798Z,31.37
2019-04-16T13:43:17.821Z,30.58
2019-04-16T13:44:19.715Z,30.22
2019-04-16T13:45:25.496Z,30.3
2019-04-16T13:46:17.890Z,30.78
2019-04-16T13:48:20.135Z,30.78